createdAt,value
2024-03-09T00:00:54.751Z,21.43
2024-03-09T00:03:28.858Z,22.30
2024-03-09T00:06:00.116Z,23.33
2024-03-09T00:08:32.136Z,24.27
2024-03-09T00:11:04.129Z,25.83
2024-03-09T00:13:38.124Z,26.43
2024-03-09T00:16:09.596Z,23.57
2024-03-09T00:18:45.310Z,27.00
2024-03-09T00:21:16.601Z,29.30
2024-03-09T00:23:48.458Z,24.30
2024-03-09T00:26:20.336Z,23.37
2024-03-09T00:28:55.772Z,24.80
2024-03-09T00:31:28.235Z,24.10
2024-03-09T00:34:02.374Z,24.70
2024-03-09T00:36:34.560Z,28.00
2024-03-09T00:39:06.458Z,25.77
2024-03-09T00:41:38.381Z,24.33
2024-03-09T00:44:10.276Z,27.67
2024-03-09T00:46:42.356Z,23.70
2024-03-09T00:49:14.310Z,24.17
2024-03-09T00:51:46.208Z,24.77
2024-03-09T00:54:18.086Z,26.43
2024-03-09T00:56:49.987Z,23.80
2024-03-09T00:59:21.930Z,25.70
2024-03-09T01:01:53.944Z,24.40
2024-03-09T01:04:25.908Z,24.40
2024-03-09T01:06:57.949Z,21.27
2024-03-09T01:09:29.844Z,23.53
2024-03-09T01:12:01.848Z,23.13
2024-03-09T01:14:34.172Z,27.23
2024-03-09T01:17:06.098Z,27.17
2024-03-09T01:19:37.992Z,23.23
2024-03-09T01:22:10.173Z,24.40
2024-03-09T01:24:42.048Z,24.30
2024-03-09T01:27:13.930Z,26.83
2024-03-09T01:29:45.817Z,25.23
2024-03-09T01:32:17.717Z,24.10
2024-03-09T01:34:49.726Z,27.17
2024-03-09T01:37:21.666Z,27.47
2024-03-09T01:39:53.678Z,26.90
2024-03-09T01:42:25.741Z,21.73
2024-03-09T01:44:57.626Z,25.27
2024-03-09T01:47:29.709Z,27.47
2024-03-09T01:50:01.622Z,28.90
2024-03-09T01:52:34.617Z,24.77
2024-03-09T01:55:07.193Z,26.67
2024-03-09T01:57:39.071Z,23.87
2024-03-09T02:00:10.954Z,23.90
2024-03-09T02:02:42.921Z,26.13
2024-03-09T02:05:14.834Z,23.47
2024-03-09T02:07:46.892Z,28.73
2024-03-09T02:10:18.795Z,24.37
2024-03-09T02:12:50.738Z,25.40
2024-03-09T02:15:22.620Z,26.30
2024-03-09T02:17:54.531Z,23.90
2024-03-09T02:20:26.468Z,26.33
2024-03-09T02:22:58.368Z,26.23
2024-03-09T02:25:30.324Z,25.57
2024-03-09T02:28:02.237Z,27.17
2024-03-09T02:30:34.137Z,26.93
2024-03-09T02:33:06.191Z,24.80
2024-03-09T02:35:38.106Z,23.73
2024-03-09T02:38:09.993Z,24.30
2024-03-09T02:40:41.970Z,23.13
2024-03-09T02:43:14.041Z,24.70
2024-03-09T02:45:46.041Z,27.03
2024-03-09T02:48:18.039Z,21.90
2024-03-09T02:50:50.092Z,27.27
2024-03-09T02:53:21.986Z,23.87
2024-03-09T02:55:54.161Z,22.37
2024-03-09T02:58:26.009Z,22.33
2024-03-09T03:00:57.941Z,24.27
2024-03-09T03:03:29.983Z,25.77
2024-03-09T03:06:01.845Z,26.10
2024-03-09T03:08:33.726Z,21.93
2024-03-09T03:11:05.583Z,26.37
2024-03-09T03:13:37.540Z,24.80
2024-03-09T03:16:09.443Z,27.13
2024-03-09T03:18:41.291Z,23.67
2024-03-09T03:21:13.773Z,23.87
2024-03-09T03:23:45.693Z,24.67
2024-03-09T03:26:17.669Z,24.03
2024-03-09T03:28:49.641Z,26.10
2024-03-09T03:31:21.597Z,23.07
2024-03-09T03:33:53.473Z,24.90
2024-03-09T03:36:25.396Z,28.93
2024-03-09T03:38:57.329Z,23.67
2024-03-09T03:41:29.189Z,23.90
2024-03-09T03:44:01.186Z,23.83
2024-03-09T03:46:33.219Z,22.70
2024-03-09T03:49:05.231Z,25.20
2024-03-09T03:51:37.115Z,24.47
2024-03-09T03:54:08.993Z,24.77
2024-03-09T03:56:40.865Z,22.03
2024-03-09T03:59:12.783Z,23.73
2024-03-09T04:01:44.795Z,20.80
2024-03-09T04:04:16.728Z,24.13
2024-03-09T04:06:48.578Z,24.67
2024-03-09T04:09:20.673Z,25.30
2024-03-09T04:11:52.618Z,21.83
2024-03-09T04:14:24.620Z,22.07
2024-03-09T04:16:56.587Z,22.30
2024-03-09T04:19:28.496Z,25.13
2024-03-09T04:22:00.369Z,21.67
2024-03-09T04:24:32.220Z,20.50
2024-03-09T04:27:04.086Z,22.63
2024-03-09T04:29:36.004Z,23.00
2024-03-09T04:32:07.872Z,28.03
2024-03-09T04:34:40.032Z,18.40
2024-03-09T04:37:12.041Z,21.83
2024-03-09T04:39:43.997Z,21.93
2024-03-09T04:42:15.833Z,21.50
2024-03-09T04:44:47.691Z,24.00
2024-03-09T04:47:19.620Z,21.43
2024-03-09T04:49:51.502Z,23.57
2024-03-09T04:52:23.664Z,23.67
2024-03-09T04:54:58.076Z,22.17
2024-03-09T04:57:29.931Z,21.97
2024-03-09T05:00:01.779Z,22.63
2024-03-09T05:02:33.867Z,21.20
2024-03-09T05:05:05.745Z,20.53
2024-03-09T05:07:37.914Z,26.47
2024-03-09T05:10:09.920Z,22.00
2024-03-09T05:12:41.805Z,23.17
2024-03-09T05:15:13.627Z,21.43
2024-03-09T05:17:45.556Z,23.50
2024-03-09T05:20:17.466Z,25.17
2024-03-09T05:22:49.427Z,21.33
2024-03-09T05:25:21.551Z,21.60
2024-03-09T05:27:53.657Z,22.93
2024-03-09T05:30:25.514Z,21.93
2024-03-09T05:32:57.414Z,22.23
2024-03-09T05:35:29.523Z,22.00
2024-03-09T05:38:01.705Z,21.77
2024-03-09T05:40:33.605Z,22.43
2024-03-09T05:43:05.688Z,21.93
2024-03-09T05:45:37.914Z,23.00
2024-03-09T05:48:10.534Z,23.20
2024-03-09T05:50:42.671Z,22.93
2024-03-09T05:53:14.753Z,21.90
2024-03-09T05:55:46.730Z,21.93
2024-03-09T05:58:18.536Z,22.33
2024-03-09T06:00:50.448Z,22.27
2024-03-09T06:03:22.276Z,23.97
2024-03-09T06:05:54.156Z,22.63
2024-03-09T06:08:26.114Z,21.70
2024-03-09T06:11:01.653Z,24.00
2024-03-09T06:13:31.628Z,21.23
2024-03-09T06:16:03.624Z,24.90
2024-03-09T06:18:35.508Z,22.27
2024-03-09T06:21:07.418Z,20.93
2024-03-09T06:23:39.265Z,23.07
2024-03-09T06:26:11.187Z,22.10
2024-03-09T06:28:43.080Z,23.57
2024-03-09T06:31:15.039Z,21.67
2024-03-09T06:33:46.863Z,23.10
2024-03-09T06:36:18.751Z,21.57
2024-03-09T06:38:50.601Z,23.30
2024-03-09T06:41:23.948Z,21.40
2024-03-09T06:43:56.042Z,26.27
2024-03-09T06:46:27.936Z,22.70
2024-03-09T06:48:59.818Z,22.53
2024-03-09T06:51:32.687Z,19.70
2024-03-09T06:54:04.667Z,24.73
2024-03-09T06:56:36.483Z,23.97
2024-03-09T06:59:08.503Z,26.30
2024-03-09T07:01:40.585Z,24.67
2024-03-09T07:04:12.497Z,23.17
2024-03-09T07:06:44.335Z,22.33
2024-03-09T07:09:16.223Z,23.60
2024-03-09T07:11:48.162Z,23.43
2024-03-09T07:14:19.995Z,20.73
2024-03-09T07:16:51.894Z,21.67
2024-03-09T07:19:23.833Z,22.73
2024-03-09T07:21:55.683Z,21.47
2024-03-09T07:24:27.595Z,24.33
2024-03-09T07:27:01.944Z,24.03
2024-03-09T07:29:32.881Z,22.03
2024-03-09T07:32:04.753Z,22.50
2024-03-09T07:34:36.695Z,19.07
2024-03-09T07:37:08.664Z,20.63
2024-03-09T07:39:40.727Z,25.80
2024-03-09T07:42:12.619Z,22.03
2024-03-09T07:44:44.489Z,18.60
2024-03-09T07:47:16.478Z,20.87
2024-03-09T07:49:48.351Z,23.73
2024-03-09T07:52:20.233Z,16.93
2024-03-09T07:54:52.118Z,19.27
2024-03-09T07:57:24.004Z,19.27
2024-03-09T07:59:55.885Z,20.20
2024-03-09T08:02:27.811Z,18.77
2024-03-09T08:04:59.892Z,20.97
2024-03-09T08:07:31.833Z,17.87
2024-03-09T08:10:04.214Z,19.77
2024-03-09T08:12:36.100Z,20.97
2024-03-09T08:15:08.021Z,24.13
2024-03-09T08:17:39.915Z,21.37
2024-03-09T08:20:11.948Z,18.23
2024-03-09T08:22:44.014Z,18.60
2024-03-09T08:25:15.938Z,18.47
2024-03-09T08:27:47.834Z,18.73
2024-03-09T08:30:19.755Z,20.40
2024-03-09T08:32:51.650Z,24.70
2024-03-09T08:35:23.683Z,19.70
2024-03-09T08:37:55.742Z,18.63
2024-03-09T08:40:27.732Z,20.43
2024-03-09T08:42:59.722Z,18.50
2024-03-09T08:45:31.579Z,21.43
2024-03-09T08:48:03.484Z,19.87
2024-03-09T08:50:35.345Z,19.27
2024-03-09T08:53:07.415Z,22.70
2024-03-09T08:55:39.622Z,21.37
2024-03-09T08:58:11.696Z,17.83
2024-03-09T09:00:43.664Z,21.50
2024-03-09T09:03:15.491Z,19.87
2024-03-09T09:05:47.418Z,17.90
2024-03-09T09:08:19.678Z,23.07
2024-03-09T09:10:51.808Z,20.37
2024-03-09T09:13:23.843Z,17.77
2024-03-09T09:15:55.720Z,22.10
2024-03-09T09:18:27.631Z,18.80
2024-03-09T09:20:59.592Z,18.00
2024-03-09T09:23:31.497Z,17.37
2024-03-09T09:26:03.731Z,18.80
2024-03-09T09:28:35.789Z,18.73
2024-03-09T09:31:07.661Z,18.90
2024-03-09T09:33:39.557Z,18.77
2024-03-09T09:36:11.496Z,17.87
2024-03-09T09:38:43.667Z,17.37
2024-03-09T09:41:15.575Z,17.47
2024-03-09T09:43:47.677Z,19.17
2024-03-09T09:46:19.542Z,17.47
2024-03-09T09:48:51.456Z,20.00
2024-03-09T09:51:23.356Z,18.83
2024-03-09T09:53:55.281Z,16.33
2024-03-09T09:56:27.278Z,18.10
2024-03-09T09:58:59.590Z,18.33
2024-03-09T10:01:31.746Z,17.30
2024-03-09T10:04:03.775Z,20.30
2024-03-09T10:06:35.713Z,18.80
2024-03-09T10:09:07.760Z,15.10
2024-03-09T10:11:39.944Z,16.60
2024-03-09T10:14:12.320Z,15.90
2024-03-09T10:16:44.229Z,18.00
2024-03-09T10:19:16.116Z,18.37
2024-03-09T10:21:48.029Z,16.07
2024-03-09T10:24:19.998Z,15.70
2024-03-09T10:26:51.903Z,16.03
2024-03-09T10:29:23.940Z,16.67
2024-03-09T10:31:55.853Z,16.40
2024-03-09T10:34:27.758Z,15.47
2024-03-09T10:36:59.716Z,15.47
2024-03-09T10:39:31.861Z,17.37
2024-03-09T10:42:04.036Z,14.87
2024-03-09T10:44:36.002Z,14.70
2024-03-09T10:47:08.056Z,15.93
2024-03-09T10:49:40.022Z,13.77
2024-03-09T10:52:12.069Z,14.17
2024-03-09T10:54:44.025Z,16.60
2024-03-09T10:57:15.937Z,13.70
2024-03-09T10:59:47.936Z,13.30
2024-03-09T11:02:19.878Z,14.03
2024-03-09T11:04:51.869Z,15.13
2024-03-09T11:07:23.807Z,15.03
2024-03-09T11:09:55.727Z,13.83
2024-03-09T11:12:29.254Z,15.97
2024-03-09T11:15:02.171Z,11.43
2024-03-09T11:17:34.158Z,13.40
2024-03-09T11:20:06.861Z,12.73
2024-03-09T11:22:38.985Z,13.27
2024-03-09T11:25:10.899Z,15.50
2024-03-09T11:27:42.831Z,13.17
2024-03-09T11:30:14.924Z,13.43
2024-03-09T11:32:49.014Z,12.80
2024-03-09T11:35:21.151Z,13.43
2024-03-09T11:37:53.213Z,14.50
2024-03-09T11:40:25.178Z,13.07
2024-03-09T11:42:57.172Z,16.17
2024-03-09T11:45:29.122Z,13.20
2024-03-09T11:48:02.750Z,12.07
2024-03-09T11:50:34.695Z,12.63
2024-03-09T11:53:06.926Z,12.60
2024-03-09T11:55:38.839Z,13.77
2024-03-09T11:58:10.813Z,16.93
2024-03-09T12:00:42.970Z,13.07
2024-03-09T12:03:14.909Z,13.90
2024-03-09T12:05:46.810Z,16.20
2024-03-09T12:08:18.844Z,15.20
2024-03-09T12:10:50.881Z,14.20
2024-03-09T12:13:23.040Z,15.67
2024-03-09T12:15:54.939Z,12.40
2024-03-09T12:18:27.130Z,12.80
2024-03-09T12:20:59.016Z,14.90
2024-03-09T12:23:30.932Z,15.63
2024-03-09T12:26:02.884Z,12.23
2024-03-09T12:28:34.886Z,13.53
2024-03-09T12:31:06.855Z,15.67
2024-03-09T12:33:38.766Z,14.80
2024-03-09T12:36:12.625Z,15.27
2024-03-09T12:38:44.593Z,14.80
2024-03-09T12:41:16.528Z,14.20
2024-03-09T12:43:48.491Z,11.93
2024-03-09T12:46:20.338Z,14.60
2024-03-09T12:48:52.221Z,12.17
2024-03-09T12:51:24.219Z,15.23
2024-03-09T12:53:56.140Z,12.40
2024-03-09T12:56:29.647Z,11.93
2024-03-09T12:59:01.626Z,13.53
2024-03-09T13:01:33.730Z,13.87
2024-03-09T13:04:08.188Z,10.43
2024-03-09T13:06:40.209Z,14.83
2024-03-09T13:09:12.189Z,11.67
2024-03-09T13:11:44.248Z,10.97
2024-03-09T13:14:16.271Z,10.57
2024-03-09T13:16:48.618Z,11.90
2024-03-09T13:19:20.906Z,10.70
2024-03-09T13:21:53.386Z,11.80
2024-03-09T13:24:25.817Z,12.93
2024-03-09T13:26:57.937Z,14.47
2024-03-09T13:29:31.243Z,10.53
2024-03-09T13:32:03.985Z,10.47
2024-03-09T13:34:35.929Z,12.63
2024-03-09T13:37:07.985Z,11.17
2024-03-09T13:39:39.819Z,12.07
2024-03-09T13:42:11.731Z,11.50
2024-03-09T13:44:43.619Z,13.30
2024-03-09T13:47:15.599Z,12.77
2024-03-09T13:49:48.036Z,12.27
2024-03-09T13:52:20.063Z,12.73
2024-03-09T13:54:51.951Z,12.67
2024-03-09T13:57:23.900Z,11.37
2024-03-09T13:59:55.757Z,13.20
2024-03-09T14:02:27.748Z,12.97
2024-03-09T14:04:59.653Z,10.93
2024-03-09T14:07:31.638Z,11.27
2024-03-09T14:10:03.598Z,12.57
2024-03-09T14:12:35.533Z,10.93
2024-03-09T14:15:07.431Z,10.93
2024-03-09T14:17:39.367Z,10.90
2024-03-09T14:20:11.265Z,10.63
2024-03-09T14:22:43.272Z,12.47
2024-03-09T14:25:15.164Z,10.13
2024-03-09T14:27:47.055Z,10.53
2024-03-09T14:30:18.966Z,14.70
2024-03-09T14:32:50.889Z,11.83
2024-03-09T14:35:22.934Z,11.50
2024-03-09T14:37:55.402Z,12.57
2024-03-09T14:40:27.543Z,13.43
2024-03-09T14:42:59.426Z,15.17
2024-03-09T14:45:31.338Z,11.10
2024-03-09T14:48:03.243Z,12.60
2024-03-09T14:50:35.123Z,13.07
2024-03-09T14:53:09.300Z,13.30
2024-03-09T14:55:41.267Z,14.13
2024-03-09T14:58:14.198Z,13.87
2024-03-09T15:00:46.191Z,12.23
2024-03-09T15:03:18.319Z,10.97
2024-03-09T15:05:50.489Z,11.90
2024-03-09T15:08:22.620Z,9.77
2024-03-09T15:10:54.867Z,10.83
2024-03-09T15:13:26.924Z,12.67
2024-03-09T15:15:58.887Z,11.30
2024-03-09T15:18:30.809Z,10.73
2024-03-09T15:21:02.721Z,10.83
2024-03-09T15:23:34.593Z,11.27
2024-03-09T15:26:06.554Z,11.77
2024-03-09T15:28:38.416Z,12.07
2024-03-09T15:31:10.426Z,12.17
2024-03-09T15:33:42.310Z,17.67
2024-03-09T15:36:14.249Z,11.97
2024-03-09T15:38:46.274Z,12.37
2024-03-09T15:41:18.202Z,10.93
2024-03-09T15:43:50.647Z,11.30
2024-03-09T15:46:22.660Z,11.13
2024-03-09T15:48:54.918Z,10.83
2024-03-09T15:51:26.792Z,11.37
2024-03-09T15:53:58.688Z,12.33
2024-03-09T15:56:31.558Z,11.80
2024-03-09T15:59:04.062Z,11.57
2024-03-09T16:01:36.031Z,11.73
2024-03-09T16:04:08.248Z,11.43
2024-03-09T16:06:40.087Z,14.50
2024-03-09T16:09:12.047Z,12.17
2024-03-09T16:11:44.032Z,16.77
2024-03-09T16:14:16.110Z,11.53
2024-03-09T16:16:48.257Z,11.83
2024-03-09T16:19:20.144Z,11.63
2024-03-09T16:21:52.054Z,13.73
2024-03-09T16:24:23.936Z,12.17
2024-03-09T16:26:55.898Z,11.93
2024-03-09T16:29:27.854Z,13.40
2024-03-09T16:31:59.770Z,13.53
2024-03-09T16:34:31.771Z,15.10
2024-03-09T16:37:03.894Z,13.00
2024-03-09T16:39:35.792Z,11.73
2024-03-09T16:42:07.676Z,13.97
2024-03-09T16:44:41.774Z,10.23
2024-03-09T16:47:13.743Z,12.93
2024-03-09T16:49:45.723Z,11.43
2024-03-09T16:52:17.712Z,13.00
2024-03-09T16:54:49.593Z,12.77
2024-03-09T16:57:21.460Z,14.17
2024-03-09T16:59:53.318Z,15.47
2024-03-09T17:02:25.299Z,13.97
2024-03-09T17:04:57.481Z,12.23
2024-03-09T17:07:29.484Z,12.23
2024-03-09T17:10:01.431Z,13.10
2024-03-09T17:12:33.363Z,13.27
2024-03-09T17:15:05.287Z,12.57
2024-03-09T17:17:37.258Z,11.83
2024-03-09T17:20:09.175Z,17.10
2024-03-09T17:22:41.223Z,13.20
2024-03-09T17:25:13.107Z,16.07
2024-03-09T17:27:45.013Z,12.73
2024-03-09T17:30:16.957Z,11.60
2024-03-09T17:32:50.149Z,11.67
2024-03-09T17:35:22.349Z,11.63
2024-03-09T17:37:54.348Z,12.40
2024-03-09T17:40:26.508Z,12.63
2024-03-09T17:42:58.494Z,13.10
2024-03-09T17:45:30.467Z,12.40
2024-03-09T17:48:02.401Z,13.63
2024-03-09T17:50:34.243Z,12.77
2024-03-09T17:53:06.218Z,14.13
2024-03-09T17:55:38.359Z,13.97
2024-03-09T17:58:10.579Z,12.90
2024-03-09T18:00:42.601Z,14.07
2024-03-09T18:03:14.603Z,14.67
2024-03-09T18:05:46.465Z,14.87
2024-03-09T18:08:18.533Z,14.13
2024-03-09T18:10:50.993Z,13.07
2024-03-09T18:13:23.080Z,15.37
2024-03-09T18:15:55.000Z,15.40
2024-03-09T18:18:26.934Z,17.70
2024-03-09T18:20:58.855Z,12.87
2024-03-09T18:23:30.949Z,14.83
2024-03-09T18:26:02.971Z,15.13
2024-03-09T18:28:34.786Z,16.93
2024-03-09T18:31:06.724Z,16.20
2024-03-09T18:33:38.614Z,15.77
2024-03-09T18:36:10.544Z,16.13
2024-03-09T18:38:42.529Z,16.83
2024-03-09T18:41:14.470Z,14.57
2024-03-09T18:43:46.671Z,14.57
2024-03-09T18:46:18.731Z,17.57
2024-03-09T18:48:50.690Z,17.03
2024-03-09T18:51:22.617Z,16.80
2024-03-09T18:53:54.522Z,17.17
2024-03-09T18:56:26.582Z,14.17
2024-03-09T18:58:58.642Z,15.93
2024-03-09T19:01:30.857Z,16.60
2024-03-09T19:04:02.832Z,16.67
2024-03-09T19:06:34.784Z,17.40
2024-03-09T19:09:06.718Z,19.23
2024-03-09T19:11:38.934Z,17.87
2024-03-09T19:14:11.285Z,20.83
2024-03-09T19:16:43.384Z,16.97
2024-03-09T19:19:15.720Z,16.43
2024-03-09T19:21:47.613Z,16.60
2024-03-09T19:24:19.544Z,14.47
2024-03-09T19:26:51.504Z,15.10
2024-03-09T19:29:23.399Z,17.23
2024-03-09T19:31:55.505Z,19.20
2024-03-09T19:34:27.416Z,14.57
2024-03-09T19:36:59.301Z,16.67
2024-03-09T19:39:31.289Z,15.80
2024-03-09T19:42:03.262Z,13.87
2024-03-09T19:44:35.311Z,14.63
2024-03-09T19:47:07.240Z,17.50
2024-03-09T19:49:39.519Z,15.53
2024-03-09T19:52:11.593Z,14.87
2024-03-09T19:54:43.649Z,13.87
2024-03-09T19:57:15.592Z,16.83
2024-03-09T19:59:47.508Z,15.47
2024-03-09T20:02:19.735Z,15.60
2024-03-09T20:04:51.619Z,15.67
2024-03-09T20:07:23.993Z,15.50
2024-03-09T20:09:55.797Z,14.37
2024-03-09T20:12:27.747Z,13.17
2024-03-09T20:14:59.674Z,17.23
2024-03-09T20:17:31.660Z,16.10
2024-03-09T20:20:03.789Z,12.90
2024-03-09T20:22:35.733Z,15.27
2024-03-09T20:25:07.795Z,18.47
2024-03-09T20:27:39.742Z,18.10
2024-03-09T20:30:11.799Z,16.20
2024-03-09T20:32:43.896Z,16.00
2024-03-09T20:35:15.887Z,15.90
2024-03-09T20:37:48.453Z,15.13
2024-03-09T20:40:21.299Z,14.67
2024-03-09T20:42:53.596Z,17.93
2024-03-09T20:45:25.571Z,14.13
2024-03-09T20:47:57.554Z,13.57
2024-03-09T20:50:29.605Z,15.47
2024-03-09T20:53:01.708Z,17.20
2024-03-09T20:55:33.677Z,13.83
2024-03-09T20:58:05.593Z,16.67
2024-03-09T21:00:41.877Z,14.40
2024-03-09T21:03:15.038Z,15.63
2024-03-09T21:05:49.853Z,14.07
2024-03-09T21:08:20.442Z,16.03
2024-03-09T21:10:52.530Z,15.63
2024-03-09T21:13:24.624Z,15.87
2024-03-09T21:15:56.704Z,14.17
2024-03-09T21:18:29.272Z,15.17
2024-03-09T21:21:01.609Z,14.77
2024-03-09T21:23:33.516Z,15.77
2024-03-09T21:26:05.399Z,15.67
2024-03-09T21:28:37.323Z,15.23
2024-03-09T21:31:09.820Z,16.53
2024-03-09T21:33:41.961Z,17.53
2024-03-09T21:36:14.033Z,14.77
2024-03-09T21:38:45.860Z,15.30
2024-03-09T21:41:17.913Z,16.10
2024-03-09T21:43:50.116Z,13.60
2024-03-09T21:46:22.085Z,14.53
2024-03-09T21:48:54.045Z,15.17
2024-03-09T21:51:26.159Z,15.23
2024-03-09T21:53:58.041Z,14.23
2024-03-09T21:56:30.017Z,14.93
2024-03-09T21:59:02.188Z,14.77
2024-03-09T22:01:34.198Z,13.47
2024-03-09T22:04:06.262Z,14.63
2024-03-09T22:06:38.484Z,16.37
2024-03-09T22:09:10.494Z,13.10
2024-03-09T22:11:42.515Z,17.67
2024-03-09T22:14:14.532Z,15.33
2024-03-09T22:16:46.610Z,14.97
2024-03-09T22:19:18.655Z,15.33
2024-03-09T22:21:50.652Z,13.67
2024-03-09T22:24:22.523Z,14.50
2024-03-09T22:26:54.520Z,15.83
2024-03-09T22:29:26.592Z,14.57
2024-03-09T22:31:58.857Z,15.60
2024-03-09T22:34:30.782Z,16.10
2024-03-09T22:37:02.686Z,16.97
2024-03-09T22:39:34.594Z,13.27
2024-03-09T22:42:07.144Z,13.83
2024-03-09T22:44:39.098Z,14.27
2024-03-09T22:47:11.171Z,16.73
2024-03-09T22:49:43.307Z,13.73
2024-03-09T22:52:15.175Z,15.20
2024-03-09T22:54:47.059Z,15.20
2024-03-09T22:57:18.945Z,16.20
2024-03-09T22:59:50.928Z,13.77
2024-03-09T23:02:23.012Z,14.77
2024-03-09T23:04:55.056Z,12.50
2024-03-09T23:07:26.951Z,15.67
2024-03-09T23:09:58.954Z,15.50
2024-03-09T23:12:30.899Z,13.67
2024-03-09T23:15:02.847Z,14.43
2024-03-09T23:17:35.065Z,15.20
2024-03-09T23:20:07.595Z,15.90
2024-03-09T23:22:39.795Z,14.27
2024-03-09T23:25:11.972Z,14.43
2024-03-09T23:27:43.865Z,12.83
2024-03-09T23:30:15.825Z,14.10
2024-03-09T23:32:47.798Z,14.77
2024-03-09T23:35:20.191Z,15.47
2024-03-09T23:37:52.581Z,14.47
2024-03-09T23:40:24.806Z,14.77
2024-03-09T23:42:56.737Z,13.10
2024-03-09T23:45:28.676Z,14.07
2024-03-09T23:48:00.620Z,15.87
2024-03-09T23:50:32.716Z,14.37
2024-03-09T23:53:04.867Z,15.17
2024-03-09T23:55:36.903Z,12.73
2024-03-09T23:58:08.850Z,14.43
